createdAt,value
2023-01-17T00:02:06.941Z,7.13
2023-01-17T00:04:52.670Z,7.15
2023-01-17T00:07:39.508Z,7.17
2023-01-17T00:10:17.694Z,7.15
2023-01-17T00:12:53.258Z,7.14
2023-01-17T00:15:20.638Z,7.16
2023-01-17T00:17:47.822Z,7.18
2023-01-17T00:20:37.781Z,7.21
2023-01-17T00:23:27.530Z,7.25
2023-01-17T00:26:03.478Z,7.24
2023-01-17T00:28:32.246Z,7.01
2023-01-17T00:30:59.139Z,7.22
2023-01-17T00:33:26.137Z,7.25
2023-01-17T00:35:53.319Z,7.27
2023-01-17T00:38:21.929Z,7.31
2023-01-17T00:40:48.987Z,7.35
2023-01-17T00:43:37.714Z,7.34
2023-01-17T00:46:23.416Z,7.35
2023-01-17T00:49:09.089Z,7.40
2023-01-17T00:51:55.307Z,7.42
2023-01-17T00:54:40.820Z,7.40
2023-01-17T00:57:26.430Z,7.39
2023-01-17T01:00:12.067Z,7.34
2023-01-17T01:02:57.727Z,7.30
2023-01-17T01:05:43.483Z,7.31
2023-01-17T01:08:42.967Z,7.32
2023-01-17T01:11:33.049Z,7.33
2023-01-17T01:14:18.677Z,7.31
2023-01-17T01:17:04.358Z,7.28
2023-01-17T01:19:50.154Z,7.28
2023-01-17T01:22:35.871Z,7.28
2023-01-17T01:25:21.930Z,7.27
2023-01-17T01:28:07.732Z,7.29
2023-01-17T01:30:53.365Z,7.31
2023-01-17T01:33:20.387Z,7.32
2023-01-17T01:35:51.628Z,7.33
2023-01-17T01:38:19.407Z,7.34
2023-01-17T01:40:48.199Z,7.33
2023-01-17T01:43:16.481Z,7.33
2023-01-17T01:45:46.219Z,7.31
2023-01-17T01:48:33.892Z,7.31
2023-01-17T01:51:03.222Z,7.33
2023-01-17T01:53:30.313Z,7.35
2023-01-17T01:55:57.351Z,7.33
2023-01-17T01:58:25.731Z,7.34
2023-01-17T02:00:52.742Z,7.34
2023-01-17T06:00:53.687Z,6.62
2023-01-17T06:03:20.824Z,7.44
2023-01-17T06:05:47.832Z,7.46
2023-01-17T06:08:14.902Z,7.49
2023-01-17T06:10:41.953Z,7.53
2023-01-17T06:13:12.578Z,7.56
2023-01-17T06:15:39.845Z,7.59
2023-01-17T06:18:14.292Z,7.62
2023-01-17T06:20:41.627Z,7.64
2023-01-17T08:01:44.713Z,7.03
2023-01-17T08:04:12.090Z,7.87
2023-01-17T08:06:39.595Z,7.95
2023-01-17T08:09:06.620Z,8.02
2023-01-17T08:11:33.569Z,8.08
2023-01-17T08:14:00.644Z,8.11
2023-01-17T08:16:28.950Z,8.15
2023-01-17T08:18:56.580Z,8.17
2023-01-17T08:21:24.780Z,8.22
2023-01-17T08:23:51.974Z,8.26
2023-01-17T08:26:22.878Z,8.28
2023-01-17T08:29:02.585Z,8.29
2023-01-17T08:31:34.584Z,8.31
2023-01-17T08:34:01.617Z,8.30
2023-01-17T08:36:29.162Z,8.33
2023-01-17T08:38:56.220Z,8.35
2023-01-17T08:41:23.796Z,8.36
2023-01-17T08:43:51.560Z,8.37
2023-01-17T08:46:18.806Z,8.39
2023-01-17T08:48:46.048Z,8.42
2023-01-17T08:51:13.105Z,8.45
2023-01-17T08:53:40.966Z,8.49
2023-01-17T08:56:08.331Z,8.49
2023-01-17T08:58:36.095Z,8.50
2023-01-17T09:01:04.979Z,8.52
2023-01-17T09:03:32.957Z,8.54
2023-01-17T09:06:03.992Z,8.55
2023-01-17T09:08:31.692Z,8.56
2023-01-17T09:10:58.811Z,8.55
2023-01-17T09:13:25.866Z,8.56
2023-01-17T09:15:56.844Z,8.61
2023-01-17T09:18:24.967Z,8.66
2023-01-17T09:20:55.412Z,8.68
2023-01-17T09:23:24.724Z,8.67
2023-01-17T09:25:58.598Z,8.65
2023-01-17T09:28:28.711Z,8.67
2023-01-17T09:30:55.738Z,8.69
2023-01-17T09:33:25.627Z,8.72
2023-01-17T09:35:52.575Z,8.74
2023-01-17T09:38:21.908Z,8.76
2023-01-17T09:40:49.020Z,8.78
2023-01-17T09:43:23.502Z,8.79
2023-01-17T09:45:50.541Z,8.79
2023-01-17T09:48:23.249Z,8.75
2023-01-17T09:50:57.298Z,8.75
2023-01-17T09:53:24.257Z,8.75
2023-01-17T09:56:03.416Z,8.73
2023-01-17T16:18:30.729Z,8.83
2023-01-17T16:21:01.958Z,9.61
2023-01-17T16:23:29.028Z,9.64
2023-01-17T16:25:56.028Z,9.67
2023-01-17T16:28:23.324Z,9.70
2023-01-17T16:30:50.343Z,9.73
2023-01-17T16:33:17.399Z,9.76
2023-01-17T16:35:44.391Z,9.78
2023-01-17T16:38:12.863Z,9.81
2023-01-17T16:40:44.582Z,9.80
2023-01-17T16:43:12.355Z,9.76
2023-01-17T16:45:41.168Z,9.55
2023-01-17T16:48:08.318Z,9.69
2023-01-17T16:50:35.309Z,9.74
2023-01-17T16:53:02.377Z,9.75
2023-01-17T16:55:29.345Z,9.73
2023-01-17T16:57:57.176Z,9.73
2023-01-17T17:00:24.204Z,9.50
2023-01-17T17:02:51.692Z,9.38
2023-01-17T17:05:19.094Z,9.39
2023-01-17T17:07:50.846Z,9.41
2023-01-17T17:10:19.997Z,9.43
2023-01-17T17:12:47.030Z,9.44
2023-01-17T17:15:14.127Z,9.44
2023-01-17T17:17:42.387Z,9.46
2023-01-17T17:20:14.309Z,9.47
2023-01-17T17:22:43.855Z,9.49
2023-01-17T17:25:12.234Z,9.49
2023-01-17T17:27:39.290Z,9.50
2023-01-17T17:30:07.300Z,9.49
2023-01-17T17:32:34.306Z,9.47
2023-01-17T17:35:01.354Z,9.45
2023-01-17T17:37:31.503Z,9.42
2023-01-17T17:39:58.528Z,9.41
2023-01-17T17:42:25.783Z,9.40
2023-01-17T17:44:52.882Z,9.40
2023-01-17T17:47:19.983Z,9.39
2023-01-17T17:49:46.961Z,9.40
2023-01-17T17:52:15.329Z,9.40
2023-01-17T17:54:42.300Z,9.41
2023-01-17T17:57:09.721Z,9.42
2023-01-17T17:59:36.796Z,9.43
2023-01-17T21:20:08.256Z,7.33
2023-01-17T21:22:35.519Z,8.04
2023-01-17T21:25:02.600Z,8.09
2023-01-17T21:27:29.812Z,8.10
2023-01-17T21:29:57.380Z,8.08
2023-01-17T21:32:25.012Z,8.12
2023-01-17T21:34:52.579Z,8.04
2023-01-17T21:37:19.698Z,7.95
2023-01-17T21:39:51.583Z,7.90
2023-01-17T21:42:18.573Z,7.85
2023-01-17T21:44:45.669Z,7.80
2023-01-17T21:47:12.714Z,7.69
2023-01-17T21:49:39.973Z,7.61
2023-01-17T21:52:07.016Z,7.52
2023-01-17T21:54:53.211Z,7.43
2023-01-17T21:57:39.978Z,7.34
2023-01-17T22:00:09.747Z,7.24
2023-01-17T22:02:42.265Z,7.13
2023-01-17T22:05:09.858Z,7.04
2023-01-17T22:07:39.118Z,7.00
2023-01-17T22:10:06.858Z,6.98
2023-01-17T22:12:33.878Z,6.99
2023-01-17T22:15:00.851Z,6.99
2023-01-17T22:17:29.588Z,6.98
2023-01-17T22:19:56.611Z,6.99
2023-01-17T22:22:23.807Z,6.98
2023-01-17T22:24:51.020Z,6.96
2023-01-17T22:27:21.114Z,6.95
2023-01-17T22:29:48.168Z,6.94
2023-01-17T22:32:15.140Z,6.93
2023-01-17T22:34:43.297Z,6.95
2023-01-17T22:37:10.351Z,6.92
2023-01-17T22:39:39.061Z,6.86
2023-01-17T22:42:06.367Z,6.79
2023-01-17T22:44:33.592Z,6.74
2023-01-17T22:47:00.678Z,6.74
2023-01-17T22:49:28.036Z,6.75
2023-01-17T22:51:55.085Z,6.76
2023-01-17T22:54:23.564Z,6.78
2023-01-17T22:56:50.552Z,6.80
2023-01-17T22:59:17.582Z,6.85
2023-01-17T23:01:44.616Z,6.87
2023-01-17T23:04:16.280Z,6.92
2023-01-17T23:06:43.629Z,6.97
2023-01-17T23:09:14.284Z,7.00
2023-01-17T23:11:43.433Z,7.08
2023-01-17T23:14:18.541Z,7.04
2023-01-17T23:17:09.118Z,7.04
2023-01-17T23:19:49.583Z,7.07
2023-01-17T23:22:22.555Z,7.09
2023-01-17T23:24:51.497Z,7.11
2023-01-17T23:27:44.343Z,7.13
2023-01-17T23:30:14.133Z,7.18
2023-01-17T23:32:47.012Z,7.23
2023-01-17T23:35:15.024Z,7.31
2023-01-17T23:38:01.975Z,7.38
2023-01-17T23:40:29.212Z,7.47
2023-01-17T23:43:14.877Z,7.54
2023-01-17T23:45:41.884Z,7.62
2023-01-17T23:48:11.812Z,7.70
2023-01-17T23:50:40.055Z,7.79
